sensor_id;sensor_type;location;lat;lon;timestamp;temperature;humidity
58865;DHT22;45702;52.982;6.658;2023-05-15T00:01:43;12.00;99.90
58865;DHT22;45702;52.982;6.658;2023-05-15T00:04:09;11.90;99.90
58865;DHT22;45702;52.982;6.658;2023-05-15T00:06:35;11.90;99.90
58865;DHT22;45702;52.982;6.658;2023-05-15T00:09:02;11.80;99.90
58865;DHT22;45702;52.982;6.658;2023-05-15T00:11:28;11.80;99.90
58865;DHT22;45702;52.982;6.658;2023-05-15T00:13:54;11.80;99.90
58865;DHT22;45702;52.982;6.658;2023-05-15T00:16:19;11.80;99.90
58865;DHT22;45702;52.982;6.658;2023-05-15T00:18:45;11.80;99.90
58865;DHT22;45702;52.982;6.658;2023-05-15T00:21:11;11.70;99.90
58865;DHT22;45702;52.982;6.658;2023-05-15T00:23:37;11.70;99.90
58865;DHT22;45702;52.982;6.658;2023-05-15T00:26:02;11.70;99.90
58865;DHT22;45702;52.982;6.658;2023-05-15T00:28:28;11.70;99.90
58865;DHT22;45702;52.982;6.658;2023-05-15T00:30:54;11.70;99.90
58865;DHT22;45702;52.982;6.658;2023-05-15T00:33:19;11.70;99.90
58865;DHT22;45702;52.982;6.658;2023-05-15T00:35:45;11.60;99.90
58865;DHT22;45702;52.982;6.658;2023-05-15T00:38:11;11.50;99.90
58865;DHT22;45702;52.982;6.658;2023-05-15T00:40:37;11.50;99.90
58865;DHT22;45702;52.982;6.658;2023-05-15T00:43:04;11.40;99.90
58865;DHT22;45702;52.982;6.658;2023-05-15T00:45:31;11.40;99.90
58865;DHT22;45702;52.982;6.658;2023-05-15T00:47:57;11.40;99.90
58865;DHT22;45702;52.982;6.658;2023-05-15T00:50:23;11.40;99.90
58865;DHT22;45702;52.982;6.658;2023-05-15T00:52:50;11.30;99.90
58865;DHT22;45702;52.982;6.658;2023-05-15T00:55:16;11.30;99.90
58865;DHT22;45702;52.982;6.658;2023-05-15T00:57:43;11.30;99.90
58865;DHT22;45702;52.982;6.658;2023-05-15T01:00:09;11.30;99.90
58865;DHT22;45702;52.982;6.658;2023-05-15T01:02:36;11.30;99.90
58865;DHT22;45702;52.982;6.658;2023-05-15T01:05:02;11.40;99.90
58865;DHT22;45702;52.982;6.658;2023-05-15T01:07:33;11.30;99.90
58865;DHT22;45702;52.982;6.658;2023-05-15T01:10:00;11.30;99.90
58865;DHT22;45702;52.982;6.658;2023-05-15T01:12:29;11.30;99.90
58865;DHT22;45702;52.982;6.658;2023-05-15T01:14:56;11.30;99.90
58865;DHT22;45702;52.982;6.658;2023-05-15T01:17:22;11.30;99.90
58865;DHT22;45702;52.982;6.658;2023-05-15T01:19:50;11.20;99.90
58865;DHT22;45702;52.982;6.658;2023-05-15T01:28:18;11.30;99.90
58865;DHT22;45702;52.982;6.658;2023-05-15T01:30:47;11.40;99.90
58865;DHT22;45702;52.982;6.658;2023-05-15T01:33:21;11.30;99.90
58865;DHT22;45702;52.982;6.658;2023-05-15T01:35:50;11.30;99.90
58865;DHT22;45702;52.982;6.658;2023-05-15T01:40:53;11.30;99.90
58865;DHT22;45702;52.982;6.658;2023-05-15T01:43:23;11.30;99.90
58865;DHT22;45702;52.982;6.658;2023-05-15T01:45:53;11.20;99.90
58865;DHT22;45702;52.982;6.658;2023-05-15T01:48:20;11.20;99.90
58865;DHT22;45702;52.982;6.658;2023-05-15T01:50:48;11.20;99.90
58865;DHT22;45702;52.982;6.658;2023-05-15T01:53:16;11.30;99.90
58865;DHT22;45702;52.982;6.658;2023-05-15T01:55:44;11.30;99.90
58865;DHT22;45702;52.982;6.658;2023-05-15T01:58:12;11.30;99.90
58865;DHT22;45702;52.982;6.658;2023-05-15T02:00:39;11.30;99.90
58865;DHT22;45702;52.982;6.658;2023-05-15T02:03:05;11.30;99.90
58865;DHT22;45702;52.982;6.658;2023-05-15T02:05:32;11.30;99.90
58865;DHT22;45702;52.982;6.658;2023-05-15T02:08:00;11.30;99.90
58865;DHT22;45702;52.982;6.658;2023-05-15T02:10:27;11.40;99.90
58865;DHT22;45702;52.982;6.658;2023-05-15T02:12:53;11.30;99.90
58865;DHT22;45702;52.982;6.658;2023-05-15T02:15:20;11.20;99.90
58865;DHT22;45702;52.982;6.658;2023-05-15T02:17:47;11.30;99.90
58865;DHT22;45702;52.982;6.658;2023-05-15T02:20:12;11.20;99.90
58865;DHT22;45702;52.982;6.658;2023-05-15T02:22:38;11.20;99.90
58865;DHT22;45702;52.982;6.658;2023-05-15T02:25:04;11.20;99.90
58865;DHT22;45702;52.982;6.658;2023-05-15T02:27:52;11.20;99.90
58865;DHT22;45702;52.982;6.658;2023-05-15T02:33:25;11.20;99.90
58865;DHT22;45702;52.982;6.658;2023-05-15T02:38:28;11.20;99.90
58865;DHT22;45702;52.982;6.658;2023-05-15T02:40:55;11.20;99.90
58865;DHT22;45702;52.982;6.658;2023-05-15T02:43:22;11.10;99.90
58865;DHT22;45702;52.982;6.658;2023-05-15T02:45:50;11.10;99.90
58865;DHT22;45702;52.982;6.658;2023-05-15T02:48:17;11.10;99.90
58865;DHT22;45702;52.982;6.658;2023-05-15T02:50:43;11.10;99.90
58865;DHT22;45702;52.982;6.658;2023-05-15T02:53:09;11.10;99.90
58865;DHT22;45702;52.982;6.658;2023-05-15T02:55:36;11.10;99.90
58865;DHT22;45702;52.982;6.658;2023-05-15T02:58:02;11.10;99.90
58865;DHT22;45702;52.982;6.658;2023-05-15T03:00:29;11.00;99.90
58865;DHT22;45702;52.982;6.658;2023-05-15T03:02:55;11.10;99.90
58865;DHT22;45702;52.982;6.658;2023-05-15T03:05:20;11.10;99.90
58865;DHT22;45702;52.982;6.658;2023-05-15T03:07:46;11.00;99.90
58865;DHT22;45702;52.982;6.658;2023-05-15T03:10:12;11.00;99.90
58865;DHT22;45702;52.982;6.658;2023-05-15T03:12:37;11.00;99.90
58865;DHT22;45702;52.982;6.658;2023-05-15T03:15:05;10.90;99.90
58865;DHT22;45702;52.982;6.658;2023-05-15T03:17:30;10.90;99.90
58865;DHT22;45702;52.982;6.658;2023-05-15T03:19:56;10.90;99.90
58865;DHT22;45702;52.982;6.658;2023-05-15T03:22:22;10.80;99.90
58865;DHT22;45702;52.982;6.658;2023-05-15T03:24:48;10.90;99.90
58865;DHT22;45702;52.982;6.658;2023-05-15T03:27:14;10.90;99.90
58865;DHT22;45702;52.982;6.658;2023-05-15T03:29:40;10.90;99.90
58865;DHT22;45702;52.982;6.658;2023-05-15T03:32:06;10.90;99.90
58865;DHT22;45702;52.982;6.658;2023-05-15T03:34:32;10.90;99.90
58865;DHT22;45702;52.982;6.658;2023-05-15T03:36:57;10.80;99.90
58865;DHT22;45702;52.982;6.658;2023-05-15T03:39:23;10.80;99.90
58865;DHT22;45702;52.982;6.658;2023-05-15T03:41:49;10.80;99.90
58865;DHT22;45702;52.982;6.658;2023-05-15T03:44:14;10.80;99.90
58865;DHT22;45702;52.982;6.658;2023-05-15T03:46:40;10.80;99.90
58865;DHT22;45702;52.982;6.658;2023-05-15T03:49:06;10.70;99.90
58865;DHT22;45702;52.982;6.658;2023-05-15T03:51:31;10.70;99.90
58865;DHT22;45702;52.982;6.658;2023-05-15T03:53:57;10.60;99.90
58865;DHT22;45702;52.982;6.658;2023-05-15T03:56:23;10.60;99.90
58865;DHT22;45702;52.982;6.658;2023-05-15T03:58:48;10.50;99.90
58865;DHT22;45702;52.982;6.658;2023-05-15T04:01:14;10.40;99.90
58865;DHT22;45702;52.982;6.658;2023-05-15T04:03:40;10.40;99.90
58865;DHT22;45702;52.982;6.658;2023-05-15T04:06:05;10.40;99.90
58865;DHT22;45702;52.982;6.658;2023-05-15T04:08:31;10.40;99.90
58865;DHT22;45702;52.982;6.658;2023-05-15T04:10:57;10.40;99.90
58865;DHT22;45702;52.982;6.658;2023-05-15T04:13:23;10.40;99.90
58865;DHT22;45702;52.982;6.658;2023-05-15T04:15:48;10.40;99.90
58865;DHT22;45702;52.982;6.658;2023-05-15T04:18:14;10.40;99.90
58865;DHT22;45702;52.982;6.658;2023-05-15T04:20:40;10.40;99.90
58865;DHT22;45702;52.982;6.658;2023-05-15T04:23:06;10.40;99.90
58865;DHT22;45702;52.982;6.658;2023-05-15T04:25:31;10.40;99.90
58865;DHT22;45702;52.982;6.658;2023-05-15T04:27:57;10.40;99.90
58865;DHT22;45702;52.982;6.658;2023-05-15T04:30:23;10.40;99.90
58865;DHT22;45702;52.982;6.658;2023-05-15T04:32:48;10.40;99.90
58865;DHT22;45702;52.982;6.658;2023-05-15T04:35:16;10.40;99.90
58865;DHT22;45702;52.982;6.658;2023-05-15T04:37:42;10.40;99.90
58865;DHT22;45702;52.982;6.658;2023-05-15T04:40:10;10.40;99.90
58865;DHT22;45702;52.982;6.658;2023-05-15T04:42:37;10.40;99.90
58865;DHT22;45702;52.982;6.658;2023-05-15T04:45:03;10.40;99.90
58865;DHT22;45702;52.982;6.658;2023-05-15T04:47:29;10.40;99.90
58865;DHT22;45702;52.982;6.658;2023-05-15T04:49:55;10.40;99.90
58865;DHT22;45702;52.982;6.658;2023-05-15T04:52:21;10.40;99.90
58865;DHT22;45702;52.982;6.658;2023-05-15T04:54:47;10.40;99.90
58865;DHT22;45702;52.982;6.658;2023-05-15T04:57:15;10.40;99.90
58865;DHT22;45702;52.982;6.658;2023-05-15T04:59:41;10.40;99.90
58865;DHT22;45702;52.982;6.658;2023-05-15T05:02:08;10.40;99.90
58865;DHT22;45702;52.982;6.658;2023-05-15T05:04:34;10.40;99.90
58865;DHT22;45702;52.982;6.658;2023-05-15T05:07:00;10.40;99.90
58865;DHT22;45702;52.982;6.658;2023-05-15T05:09:28;10.50;99.90
58865;DHT22;45702;52.982;6.658;2023-05-15T05:11:54;10.50;99.90
58865;DHT22;45702;52.982;6.658;2023-05-15T05:14:20;10.50;99.90
58865;DHT22;45702;52.982;6.658;2023-05-15T05:16:46;10.50;99.90
58865;DHT22;45702;52.982;6.658;2023-05-15T05:19:12;10.60;99.90
58865;DHT22;45702;52.982;6.658;2023-05-15T05:21:38;10.50;99.90
58865;DHT22;45702;52.982;6.658;2023-05-15T05:24:04;10.50;99.90
58865;DHT22;45702;52.982;6.658;2023-05-15T05:26:29;10.60;99.90
58865;DHT22;45702;52.982;6.658;2023-05-15T05:28:55;10.50;99.90
58865;DHT22;45702;52.982;6.658;2023-05-15T05:31:21;10.60;99.90
58865;DHT22;45702;52.982;6.658;2023-05-15T05:33:47;10.60;99.90
58865;DHT22;45702;52.982;6.658;2023-05-15T05:36:14;10.70;99.90
58865;DHT22;45702;52.982;6.658;2023-05-15T05:38:40;10.80;99.90
58865;DHT22;45702;52.982;6.658;2023-05-15T05:41:06;10.80;99.90
58865;DHT22;45702;52.982;6.658;2023-05-15T05:43:32;10.90;99.90
58865;DHT22;45702;52.982;6.658;2023-05-15T05:45:58;10.90;99.90
58865;DHT22;45702;52.982;6.658;2023-05-15T05:48:24;11.00;99.90
58865;DHT22;45702;52.982;6.658;2023-05-15T05:50:51;11.00;99.90
58865;DHT22;45702;52.982;6.658;2023-05-15T05:53:17;11.00;99.90
58865;DHT22;45702;52.982;6.658;2023-05-15T05:55:43;11.10;99.90
58865;DHT22;45702;52.982;6.658;2023-05-15T05:58:08;11.10;99.90
58865;DHT22;45702;52.982;6.658;2023-05-15T06:00:34;11.20;99.90
58865;DHT22;45702;52.982;6.658;2023-05-15T06:03:00;11.20;99.90
58865;DHT22;45702;52.982;6.658;2023-05-15T06:05:26;11.30;99.90
58865;DHT22;45702;52.982;6.658;2023-05-15T06:07:52;11.20;99.90
58865;DHT22;45702;52.982;6.658;2023-05-15T06:10:18;11.30;99.90
58865;DHT22;45702;52.982;6.658;2023-05-15T06:12:45;11.30;99.90
58865;DHT22;45702;52.982;6.658;2023-05-15T06:15:11;11.30;99.90
58865;DHT22;45702;52.982;6.658;2023-05-15T06:17:37;11.40;99.90
58865;DHT22;45702;52.982;6.658;2023-05-15T06:20:05;11.40;99.90
58865;DHT22;45702;52.982;6.658;2023-05-15T06:22:35;11.50;99.90
58865;DHT22;45702;52.982;6.658;2023-05-15T06:25:05;11.60;99.90
58865;DHT22;45702;52.982;6.658;2023-05-15T06:27:34;11.60;99.90
58865;DHT22;45702;52.982;6.658;2023-05-15T06:30:00;11.70;99.90
58865;DHT22;45702;52.982;6.658;2023-05-15T06:32:25;11.70;99.90
58865;DHT22;45702;52.982;6.658;2023-05-15T06:34:51;11.70;99.90
58865;DHT22;45702;52.982;6.658;2023-05-15T06:37:17;11.80;99.90
58865;DHT22;45702;52.982;6.658;2023-05-15T06:39:42;11.80;99.90
58865;DHT22;45702;52.982;6.658;2023-05-15T06:42:08;11.90;99.90
58865;DHT22;45702;52.982;6.658;2023-05-15T06:44:34;11.90;99.90
58865;DHT22;45702;52.982;6.658;2023-05-15T06:47:00;11.90;99.90
58865;DHT22;45702;52.982;6.658;2023-05-15T06:49:26;11.90;99.90
58865;DHT22;45702;52.982;6.658;2023-05-15T06:51:52;11.90;99.90
58865;DHT22;45702;52.982;6.658;2023-05-15T06:54:19;12.00;99.90
58865;DHT22;45702;52.982;6.658;2023-05-15T06:56:45;12.00;99.90
58865;DHT22;45702;52.982;6.658;2023-05-15T06:59:11;12.00;99.90
58865;DHT22;45702;52.982;6.658;2023-05-15T07:01:37;12.10;99.90
58865;DHT22;45702;52.982;6.658;2023-05-15T07:04:03;12.20;99.90
58865;DHT22;45702;52.982;6.658;2023-05-15T07:06:30;12.30;99.90
58865;DHT22;45702;52.982;6.658;2023-05-15T07:08:59;12.30;99.90
58865;DHT22;45702;52.982;6.658;2023-05-15T07:11:25;12.40;99.90
58865;DHT22;45702;52.982;6.658;2023-05-15T07:13:54;12.50;99.90
58865;DHT22;45702;52.982;6.658;2023-05-15T07:16:19;12.50;99.90
58865;DHT22;45702;52.982;6.658;2023-05-15T07:18:45;12.50;99.90
58865;DHT22;45702;52.982;6.658;2023-05-15T07:21:11;12.60;99.90
58865;DHT22;45702;52.982;6.658;2023-05-15T07:23:36;12.60;99.90
58865;DHT22;45702;52.982;6.658;2023-05-15T07:26:02;12.60;99.90
58865;DHT22;45702;52.982;6.658;2023-05-15T07:28:28;12.70;99.90
58865;DHT22;45702;52.982;6.658;2023-05-15T07:30:53;12.80;99.90
58865;DHT22;45702;52.982;6.658;2023-05-15T07:33:19;12.70;99.90
58865;DHT22;45702;52.982;6.658;2023-05-15T07:35:45;12.80;99.90
58865;DHT22;45702;52.982;6.658;2023-05-15T07:38:11;12.90;99.90
58865;DHT22;45702;52.982;6.658;2023-05-15T07:40:37;12.90;99.90
58865;DHT22;45702;52.982;6.658;2023-05-15T07:43:03;13.00;99.90
58865;DHT22;45702;52.982;6.658;2023-05-15T07:45:28;13.00;99.90
58865;DHT22;45702;52.982;6.658;2023-05-15T07:47:54;13.00;99.90
58865;DHT22;45702;52.982;6.658;2023-05-15T07:50:20;13.00;99.90
58865;DHT22;45702;52.982;6.658;2023-05-15T07:52:46;13.00;99.90
58865;DHT22;45702;52.982;6.658;2023-05-15T07:55:12;13.00;99.90
58865;DHT22;45702;52.982;6.658;2023-05-15T07:57:37;13.10;99.90
58865;DHT22;45702;52.982;6.658;2023-05-15T08:00:05;13.20;99.90
58865;DHT22;45702;52.982;6.658;2023-05-15T08:02:35;13.20;99.90
58865;DHT22;45702;52.982;6.658;2023-05-15T08:05:01;13.30;99.90
58865;DHT22;45702;52.982;6.658;2023-05-15T08:07:29;13.40;99.90
58865;DHT22;45702;52.982;6.658;2023-05-15T08:09:55;13.40;99.90
58865;DHT22;45702;52.982;6.658;2023-05-15T08:12:21;13.50;99.90
58865;DHT22;45702;52.982;6.658;2023-05-15T08:14:51;13.50;99.90
58865;DHT22;45702;52.982;6.658;2023-05-15T08:17:18;13.60;99.90
58865;DHT22;45702;52.982;6.658;2023-05-15T08:19:45;13.60;99.90
58865;DHT22;45702;52.982;6.658;2023-05-15T08:22:10;13.70;99.90
58865;DHT22;45702;52.982;6.658;2023-05-15T08:24:37;13.80;99.90
58865;DHT22;45702;52.982;6.658;2023-05-15T08:27:07;13.90;99.90
58865;DHT22;45702;52.982;6.658;2023-05-15T08:29:36;13.90;99.90
58865;DHT22;45702;52.982;6.658;2023-05-15T08:32:02;14.00;99.90
58865;DHT22;45702;52.982;6.658;2023-05-15T08:34:28;14.10;99.90
58865;DHT22;45702;52.982;6.658;2023-05-15T08:36:54;14.20;99.90
58865;DHT22;45702;52.982;6.658;2023-05-15T08:39:20;14.30;99.90
58865;DHT22;45702;52.982;6.658;2023-05-15T08:44:18;14.50;99.90
58865;DHT22;45702;52.982;6.658;2023-05-15T08:46:46;14.60;99.90
58865;DHT22;45702;52.982;6.658;2023-05-15T08:49:23;14.80;99.90
58865;DHT22;45702;52.982;6.658;2023-05-15T08:51:52;14.90;99.90
58865;DHT22;45702;52.982;6.658;2023-05-15T08:54:21;15.00;99.90
58865;DHT22;45702;52.982;6.658;2023-05-15T08:56:47;15.10;99.90
58865;DHT22;45702;52.982;6.658;2023-05-15T08:59:16;15.10;99.90
58865;DHT22;45702;52.982;6.658;2023-05-15T09:01:41;15.20;99.90
58865;DHT22;45702;52.982;6.658;2023-05-15T09:04:07;15.30;99.90
58865;DHT22;45702;52.982;6.658;2023-05-15T09:06:33;15.40;99.90
58865;DHT22;45702;52.982;6.658;2023-05-15T09:09:00;15.40;99.90
58865;DHT22;45702;52.982;6.658;2023-05-15T09:11:26;15.50;99.90
58865;DHT22;45702;52.982;6.658;2023-05-15T09:13:52;15.50;99.80
58865;DHT22;45702;52.982;6.658;2023-05-15T09:16:19;15.60;98.50
58865;DHT22;45702;52.982;6.658;2023-05-15T09:18:46;15.70;97.70
58865;DHT22;45702;52.982;6.658;2023-05-15T09:23:49;15.70;97.40
58865;DHT22;45702;52.982;6.658;2023-05-15T09:26:15;15.80;97.40
58865;DHT22;45702;52.982;6.658;2023-05-15T09:28:40;15.90;97.30
58865;DHT22;45702;52.982;6.658;2023-05-15T09:31:06;16.00;97.60
58865;DHT22;45702;52.982;6.658;2023-05-15T09:33:38;16.00;97.00
58865;DHT22;45702;52.982;6.658;2023-05-15T09:36:06;16.10;97.20
58865;DHT22;45702;52.982;6.658;2023-05-15T09:38:32;16.20;97.70
58865;DHT22;45702;52.982;6.658;2023-05-15T09:41:06;16.30;97.70
58865;DHT22;45702;52.982;6.658;2023-05-15T09:43:35;16.50;97.90
58865;DHT22;45702;52.982;6.658;2023-05-15T09:46:01;16.60;97.60
58865;DHT22;45702;52.982;6.658;2023-05-15T09:48:27;16.70;97.70
58865;DHT22;45702;52.982;6.658;2023-05-15T09:50:53;16.80;97.70
58865;DHT22;45702;52.982;6.658;2023-05-15T09:53:20;16.90;97.80
58865;DHT22;45702;52.982;6.658;2023-05-15T09:55:47;17.00;97.30
58865;DHT22;45702;52.982;6.658;2023-05-15T09:58:17;17.10;96.30
58865;DHT22;45702;52.982;6.658;2023-05-15T10:00:44;17.10;95.90
58865;DHT22;45702;52.982;6.658;2023-05-15T10:03:10;17.30;95.30
58865;DHT22;45702;52.982;6.658;2023-05-15T10:05:37;17.40;95.20
58865;DHT22;45702;52.982;6.658;2023-05-15T10:08:03;17.40;95.00
58865;DHT22;45702;52.982;6.658;2023-05-15T10:10:30;17.50;95.00
58865;DHT22;45702;52.982;6.658;2023-05-15T10:12:58;17.60;95.00
58865;DHT22;45702;52.982;6.658;2023-05-15T10:15:26;17.70;94.50
58865;DHT22;45702;52.982;6.658;2023-05-15T10:17:53;17.70;95.00
58865;DHT22;45702;52.982;6.658;2023-05-15T10:20:22;17.80;93.80
58865;DHT22;45702;52.982;6.658;2023-05-15T10:22:49;17.80;92.60
58865;DHT22;45702;52.982;6.658;2023-05-15T10:27:57;17.90;93.00
58865;DHT22;45702;52.982;6.658;2023-05-15T10:30:23;18.10;92.80
58865;DHT22;45702;52.982;6.658;2023-05-15T10:32:50;18.10;92.70
58865;DHT22;45702;52.982;6.658;2023-05-15T10:35:17;18.20;92.30
58865;DHT22;45702;52.982;6.658;2023-05-15T10:37:47;18.30;91.80
58865;DHT22;45702;52.982;6.658;2023-05-15T10:40:14;18.30;90.90
58865;DHT22;45702;52.982;6.658;2023-05-15T10:42:45;18.40;90.70
58865;DHT22;45702;52.982;6.658;2023-05-15T10:45:12;18.40;89.60
58865;DHT22;45702;52.982;6.658;2023-05-15T10:47:39;18.40;90.70
58865;DHT22;45702;52.982;6.658;2023-05-15T10:50:06;18.50;92.20
58865;DHT22;45702;52.982;6.658;2023-05-15T10:52:32;18.60;92.00
58865;DHT22;45702;52.982;6.658;2023-05-15T10:54:59;18.60;90.20
58865;DHT22;45702;52.982;6.658;2023-05-15T10:57:27;18.60;88.70
58865;DHT22;45702;52.982;6.658;2023-05-15T10:59:54;18.60;87.20
58865;DHT22;45702;52.982;6.658;2023-05-15T11:02:22;18.60;87.90
58865;DHT22;45702;52.982;6.658;2023-05-15T11:05:02;18.50;87.30
58865;DHT22;45702;52.982;6.658;2023-05-15T11:07:30;18.40;86.10
58865;DHT22;45702;52.982;6.658;2023-05-15T11:09:56;18.40;87.50
58865;DHT22;45702;52.982;6.658;2023-05-15T11:12:22;18.30;89.70
58865;DHT22;45702;52.982;6.658;2023-05-15T11:17:22;18.50;90.80
58865;DHT22;45702;52.982;6.658;2023-05-15T11:24:53;18.70;89.00
58865;DHT22;45702;52.982;6.658;2023-05-15T11:30:18;18.80;89.10
58865;DHT22;45702;52.982;6.658;2023-05-15T11:33:00;18.80;90.00
58865;DHT22;45702;52.982;6.658;2023-05-15T11:45:30;18.70;90.00
58865;DHT22;45702;52.982;6.658;2023-05-15T11:47:58;18.80;91.00
58865;DHT22;45702;52.982;6.658;2023-05-15T11:50:24;19.00;91.40
58865;DHT22;45702;52.982;6.658;2023-05-15T11:52:50;19.10;90.40
58865;DHT22;45702;52.982;6.658;2023-05-15T11:55:18;19.20;90.00
58865;DHT22;45702;52.982;6.658;2023-05-15T11:57:47;19.20;88.20
58865;DHT22;45702;52.982;6.658;2023-05-15T12:00:13;19.20;88.30
58865;DHT22;45702;52.982;6.658;2023-05-15T12:02:40;19.30;88.10
58865;DHT22;45702;52.982;6.658;2023-05-15T12:05:06;19.30;87.80
58865;DHT22;45702;52.982;6.658;2023-05-15T12:07:37;19.20;84.80
58865;DHT22;45702;52.982;6.658;2023-05-15T12:10:03;19.20;87.30
58865;DHT22;45702;52.982;6.658;2023-05-15T12:12:29;19.10;87.60
58865;DHT22;45702;52.982;6.658;2023-05-15T12:14:58;19.10;87.70
58865;DHT22;45702;52.982;6.658;2023-05-15T12:17:24;19.00;86.30
58865;DHT22;45702;52.982;6.658;2023-05-15T12:19:50;18.90;86.00
58865;DHT22;45702;52.982;6.658;2023-05-15T12:22:16;18.80;86.20
58865;DHT22;45702;52.982;6.658;2023-05-15T12:24:43;18.80;86.50
58865;DHT22;45702;52.982;6.658;2023-05-15T12:27:10;18.90;87.20
58865;DHT22;45702;52.982;6.658;2023-05-15T12:29:38;18.90;88.00
58865;DHT22;45702;52.982;6.658;2023-05-15T12:32:04;19.00;87.40
58865;DHT22;45702;52.982;6.658;2023-05-15T12:34:31;19.10;88.90
58865;DHT22;45702;52.982;6.658;2023-05-15T12:36:57;19.10;87.70
58865;DHT22;45702;52.982;6.658;2023-05-15T12:39:25;19.20;88.90
58865;DHT22;45702;52.982;6.658;2023-05-15T12:41:51;19.30;87.50
58865;DHT22;45702;52.982;6.658;2023-05-15T12:44:20;19.20;86.70
58865;DHT22;45702;52.982;6.658;2023-05-15T12:46:46;19.20;85.90
58865;DHT22;45702;52.982;6.658;2023-05-15T12:49:12;19.00;86.50
58865;DHT22;45702;52.982;6.658;2023-05-15T12:51:42;19.00;87.80
58865;DHT22;45702;52.982;6.658;2023-05-15T12:54:18;19.00;88.60
58865;DHT22;45702;52.982;6.658;2023-05-15T12:56:45;19.00;87.70
58865;DHT22;45702;52.982;6.658;2023-05-15T12:59:11;19.00;86.60
58865;DHT22;45702;52.982;6.658;2023-05-15T13:01:37;18.90;88.50
58865;DHT22;45702;52.982;6.658;2023-05-15T13:04:02;19.00;89.10
58865;DHT22;45702;52.982;6.658;2023-05-15T13:06:28;19.10;88.80
58865;DHT22;45702;52.982;6.658;2023-05-15T13:08:54;19.30;89.30
58865;DHT22;45702;52.982;6.658;2023-05-15T13:11:20;19.40;88.90
58865;DHT22;45702;52.982;6.658;2023-05-15T13:13:47;19.50;87.90
58865;DHT22;45702;52.982;6.658;2023-05-15T13:16:25;19.50;88.70
58865;DHT22;45702;52.982;6.658;2023-05-15T13:18:51;19.60;90.00
58865;DHT22;45702;52.982;6.658;2023-05-15T13:21:17;19.70;90.00
58865;DHT22;45702;52.982;6.658;2023-05-15T13:23:43;19.80;86.60
58865;DHT22;45702;52.982;6.658;2023-05-15T13:26:09;19.80;82.30
58865;DHT22;45702;52.982;6.658;2023-05-15T13:28:35;19.80;78.50
58865;DHT22;45702;52.982;6.658;2023-05-15T13:31:01;19.90;78.70
58865;DHT22;45702;52.982;6.658;2023-05-15T13:33:26;19.90;77.90
58865;DHT22;45702;52.982;6.658;2023-05-15T13:35:53;19.90;77.30
58865;DHT22;45702;52.982;6.658;2023-05-15T13:38:19;20.00;78.40
58865;DHT22;45702;52.982;6.658;2023-05-15T13:40:45;20.00;81.00
58865;DHT22;45702;52.982;6.658;2023-05-15T13:43:11;20.20;82.70
58865;DHT22;45702;52.982;6.658;2023-05-15T13:45:36;20.30;82.80
58865;DHT22;45702;52.982;6.658;2023-05-15T13:48:02;20.40;83.50
58865;DHT22;45702;52.982;6.658;2023-05-15T13:50:28;20.40;83.10
58865;DHT22;45702;52.982;6.658;2023-05-15T13:52:54;20.40;82.00
58865;DHT22;45702;52.982;6.658;2023-05-15T13:55:20;20.20;82.20
58865;DHT22;45702;52.982;6.658;2023-05-15T13:57:46;20.00;83.50
58865;DHT22;45702;52.982;6.658;2023-05-15T14:00:12;19.80;85.00
58865;DHT22;45702;52.982;6.658;2023-05-15T14:02:43;19.80;85.20
58865;DHT22;45702;52.982;6.658;2023-05-15T14:05:11;19.70;84.30
58865;DHT22;45702;52.982;6.658;2023-05-15T14:07:37;19.70;84.20
58865;DHT22;45702;52.982;6.658;2023-05-15T14:10:03;19.60;84.70
58865;DHT22;45702;52.982;6.658;2023-05-15T14:12:28;19.40;84.80
58865;DHT22;45702;52.982;6.658;2023-05-15T14:14:54;19.30;85.50
58865;DHT22;45702;52.982;6.658;2023-05-15T14:17:21;19.10;86.10
58865;DHT22;45702;52.982;6.658;2023-05-15T14:19:47;19.00;87.30
58865;DHT22;45702;52.982;6.658;2023-05-15T14:22:14;18.80;87.40
58865;DHT22;45702;52.982;6.658;2023-05-15T14:24:40;18.60;88.10
58865;DHT22;45702;52.982;6.658;2023-05-15T14:27:05;18.40;89.80
58865;DHT22;45702;52.982;6.658;2023-05-15T14:29:32;18.30;90.10
58865;DHT22;45702;52.982;6.658;2023-05-15T14:31:58;18.10;90.10
58865;DHT22;45702;52.982;6.658;2023-05-15T14:34:24;18.00;90.20
58865;DHT22;45702;52.982;6.658;2023-05-15T14:36:49;17.80;90.70
58865;DHT22;45702;52.982;6.658;2023-05-15T14:39:15;17.70;90.50
58865;DHT22;45702;52.982;6.658;2023-05-15T14:41:42;17.50;91.00
58865;DHT22;45702;52.982;6.658;2023-05-15T14:44:09;17.40;91.30
58865;DHT22;45702;52.982;6.658;2023-05-15T14:46:34;17.30;91.50
58865;DHT22;45702;52.982;6.658;2023-05-15T14:49:04;17.20;92.20
58865;DHT22;45702;52.982;6.658;2023-05-15T14:51:30;17.10;92.60
58865;DHT22;45702;52.982;6.658;2023-05-15T14:53:56;17.10;92.70
58865;DHT22;45702;52.982;6.658;2023-05-15T14:56:22;17.00;93.30
58865;DHT22;45702;52.982;6.658;2023-05-15T14:58:48;17.00;93.40
58865;DHT22;45702;52.982;6.658;2023-05-15T15:01:15;16.90;93.30
58865;DHT22;45702;52.982;6.658;2023-05-15T15:03:40;16.90;93.70
58865;DHT22;45702;52.982;6.658;2023-05-15T15:06:09;17.00;93.60
58865;DHT22;45702;52.982;6.658;2023-05-15T15:08:35;16.90;93.80
58865;DHT22;45702;52.982;6.658;2023-05-15T15:11:01;16.90;93.60
58865;DHT22;45702;52.982;6.658;2023-05-15T15:13:27;17.00;94.00
58865;DHT22;45702;52.982;6.658;2023-05-15T15:15:54;17.00;94.00
58865;DHT22;45702;52.982;6.658;2023-05-15T15:18:20;17.00;93.40
58865;DHT22;45702;52.982;6.658;2023-05-15T15:20:46;16.90;93.10
58865;DHT22;45702;52.982;6.658;2023-05-15T15:23:12;16.90;93.70
58865;DHT22;45702;52.982;6.658;2023-05-15T15:25:38;16.80;94.00
58865;DHT22;45702;52.982;6.658;2023-05-15T15:28:04;16.80;93.60
58865;DHT22;45702;52.982;6.658;2023-05-15T15:30:30;16.70;93.90
58865;DHT22;45702;52.982;6.658;2023-05-15T15:32:59;16.60;94.40
58865;DHT22;45702;52.982;6.658;2023-05-15T15:35:25;16.60;94.80
58865;DHT22;45702;52.982;6.658;2023-05-15T15:37:51;16.60;94.80
58865;DHT22;45702;52.982;6.658;2023-05-15T15:40:17;16.60;95.20
58865;DHT22;45702;52.982;6.658;2023-05-15T15:42:44;16.50;94.60
58865;DHT22;45702;52.982;6.658;2023-05-15T15:45:10;16.40;95.20
58865;DHT22;45702;52.982;6.658;2023-05-15T15:47:35;16.30;95.10
58865;DHT22;45702;52.982;6.658;2023-05-15T15:50:01;16.10;95.10
58865;DHT22;45702;52.982;6.658;2023-05-15T15:52:27;16.10;95.30
58865;DHT22;45702;52.982;6.658;2023-05-15T15:54:53;15.90;95.80
58865;DHT22;45702;52.982;6.658;2023-05-15T15:57:20;15.90;96.10
58865;DHT22;45702;52.982;6.658;2023-05-15T15:59:46;15.80;96.00
58865;DHT22;45702;52.982;6.658;2023-05-15T16:02:12;15.70;96.10
58865;DHT22;45702;52.982;6.658;2023-05-15T16:04:39;15.70;96.40
58865;DHT22;45702;52.982;6.658;2023-05-15T16:07:05;15.60;96.70
58865;DHT22;45702;52.982;6.658;2023-05-15T16:09:31;15.50;97.00